Chicago, Illinois
Traffic Map
Current Weather Conditions
Chicago, Illinois
Few Clouds
Few Clouds
-7°
Feels Like: -16°
Wind Chill: -16° Ceiling: Unl
Heat Index: -7° Visibility: 10mi
Dew Point: -19° Wind: 18mph
Humidity: 40% Direction: 320° (NW)
Pressure: 30.27in Gusts: 29mph
Raw Report DataKMDW 122353Z 32016G25KT 10SM FEW050 M07/M19 A3027 RMK AO2 PK WND 33026/2338 SLP269 T10721189 11039 21072 53034
Traffic Incident Summary
Active as of:
Severity:
Category:
InformationThere was an issue retrieving the traffic information for this location. Please try a different location or try again shortly.
Advertisements
Track Severe Weather on mobile